sensor_id;sensor_type;location;lat;lon;timestamp;pressure;altitude;pressure_sealevel;temperature;humidity
37298;BME280;30517;51.932;4.278;2023-01-15T00:02:18;99837.84;;;10.51;70.17
37298;BME280;30517;51.932;4.278;2023-01-15T00:04:59;99852.63;;;10.59;70.20
37298;BME280;30517;51.932;4.278;2023-01-15T00:07:42;99854.34;;;10.62;70.30
37298;BME280;30517;51.932;4.278;2023-01-15T00:10:23;99853.47;;;10.61;69.96
37298;BME280;30517;51.932;4.278;2023-01-15T00:13:04;99848.34;;;10.52;70.36
37298;BME280;30517;51.932;4.278;2023-01-15T00:15:45;99846.69;;;10.47;70.03
37298;BME280;30517;51.932;4.278;2023-01-15T00:18:25;99851.75;;;10.57;70.32
37298;BME280;30517;51.932;4.278;2023-01-15T00:21:11;99830.13;;;10.40;69.91
37298;BME280;30517;51.932;4.278;2023-01-15T00:23:53;99848.28;;;10.55;70.12
37298;BME280;30517;51.932;4.278;2023-01-15T00:26:53;99856.13;;;10.58;70.50
37298;BME280;30517;51.932;4.278;2023-01-15T00:29:52;99826.47;;;10.47;70.60
37298;BME280;30517;51.932;4.278;2023-01-15T00:32:33;99841.25;;;10.56;70.55
37298;BME280;30517;51.932;4.278;2023-01-15T00:35:16;99818.66;;;10.41;70.16
37298;BME280;30517;51.932;4.278;2023-01-15T00:37:57;99836.88;;;10.55;70.27
37298;BME280;30517;51.932;4.278;2023-01-15T00:40:39;99856.19;;;10.55;70.28
37298;BME280;30517;51.932;4.278;2023-01-15T00:43:20;99842.25;;;10.49;70.12
37298;BME280;30517;51.932;4.278;2023-01-15T00:46:01;99852.75;;;10.53;70.28
37298;BME280;30517;51.932;4.278;2023-01-15T00:48:44;99850.09;;;10.53;70.42
37298;BME280;30517;51.932;4.278;2023-01-15T00:51:24;99843.91;;;10.56;70.50
37298;BME280;30517;51.932;4.278;2023-01-15T00:54:05;99852.75;;;10.53;70.21
37298;BME280;30517;51.932;4.278;2023-01-15T00:56:46;99826.56;;;10.41;70.09
37298;BME280;30517;51.932;4.278;2023-01-15T00:59:27;99847.66;;;10.41;69.88
37298;BME280;30517;51.932;4.278;2023-01-15T01:02:07;99839.81;;;10.38;70.11
37298;BME280;30517;51.932;4.278;2023-01-15T01:04:48;99841.47;;;10.42;70.13
37298;BME280;30517;51.932;4.278;2023-01-15T01:07:29;99845.03;;;10.41;70.19
37298;BME280;30517;51.932;4.278;2023-01-15T01:10:10;99832.03;;;10.32;69.69
37298;BME280;30517;51.932;4.278;2023-01-15T01:12:51;99863.31;;;10.50;69.59
37298;BME280;30517;51.932;4.278;2023-01-15T01:15:33;99873.03;;;10.48;70.05
37298;BME280;30517;51.932;4.278;2023-01-15T01:18:14;99842.53;;;10.33;70.07
37298;BME280;30517;51.932;4.278;2023-01-15T01:20:55;99856.34;;;10.48;70.22
37298;BME280;30517;51.932;4.278;2023-01-15T01:23:36;99831.19;;;10.30;69.88
37298;BME280;30517;51.932;4.278;2023-01-15T01:26:16;99823.44;;;10.17;70.00
37298;BME280;30517;51.932;4.278;2023-01-15T01:28:57;99840.78;;;10.32;69.90
37298;BME280;30517;51.932;4.278;2023-01-15T01:31:38;99839.16;;;10.24;70.23
37298;BME280;30517;51.932;4.278;2023-01-15T01:34:19;99857.47;;;10.33;69.64
37298;BME280;30517;51.932;4.278;2023-01-15T01:37:00;99862.69;;;10.36;69.91
37298;BME280;30517;51.932;4.278;2023-01-15T01:39:41;99876.66;;;10.43;70.03
37298;BME280;30517;51.932;4.278;2023-01-15T01:42:22;99846.22;;;10.22;69.74
37298;BME280;30517;51.932;4.278;2023-01-15T01:45:10;99838.25;;;10.25;69.65
37298;BME280;30517;51.932;4.278;2023-01-15T01:47:59;99876.66;;;10.41;69.80
37298;BME280;30517;51.932;4.278;2023-01-15T01:50:43;99856.69;;;10.25;69.69
37298;BME280;30517;51.932;4.278;2023-01-15T01:53:27;99881.94;;;10.41;69.52
37298;BME280;30517;51.932;4.278;2023-01-15T01:56:10;99888.13;;;10.40;70.03
37298;BME280;30517;51.932;4.278;2023-01-15T01:58:53;99889.84;;;10.39;69.83
37298;BME280;30517;51.932;4.278;2023-01-15T02:01:34;99883.81;;;10.34;69.81
37298;BME280;30517;51.932;4.278;2023-01-15T02:04:17;99859.34;;;10.25;69.78
37298;BME280;30517;51.932;4.278;2023-01-15T02:07:00;99884.63;;;10.36;69.83
37298;BME280;30517;51.932;4.278;2023-01-15T02:09:41;99863.59;;;10.35;69.68
37298;BME280;30517;51.932;4.278;2023-01-15T02:12:36;99866.28;;;10.32;69.63
37298;BME280;30517;51.932;4.278;2023-01-15T02:15:23;99833.97;;;10.17;70.39
37298;BME280;30517;51.932;4.278;2023-01-15T02:18:22;99861.88;;;10.32;69.88
37298;BME280;30517;51.932;4.278;2023-01-15T02:21:15;99867.16;;;10.31;69.82
37298;BME280;30517;51.932;4.278;2023-01-15T02:27:09;99867.22;;;10.29;69.71
37298;BME280;30517;51.932;4.278;2023-01-15T02:32:58;99859.25;;;10.32;69.52
37298;BME280;30517;51.932;4.278;2023-01-15T02:35:54;99865.47;;;10.25;69.73
37298;BME280;30517;51.932;4.278;2023-01-15T02:38:47;99838.41;;;10.15;69.81
37298;BME280;30517;51.932;4.278;2023-01-15T02:41:39;99833.16;;;10.15;69.84
37298;BME280;30517;51.932;4.278;2023-01-15T02:44:24;99797.53;;;9.90;69.63
37298;BME280;30517;51.932;4.278;2023-01-15T02:47:07;99842.72;;;10.21;69.74
37298;BME280;30517;51.932;4.278;2023-01-15T02:49:50;99849.63;;;10.28;69.63
37298;BME280;30517;51.932;4.278;2023-01-15T02:52:36;99847.84;;;10.30;69.72
37298;BME280;30517;51.932;4.278;2023-01-15T02:55:25;99854.06;;;10.25;69.71
37298;BME280;30517;51.932;4.278;2023-01-15T02:58:11;99844.34;;;10.30;69.89
37298;BME280;30517;51.932;4.278;2023-01-15T03:00:55;99819.88;;;10.20;70.12
37298;BME280;30517;51.932;4.278;2023-01-15T03:09:45;99855.78;;;10.26;69.72
37298;BME280;30517;51.932;4.278;2023-01-15T03:12:29;99800.91;;;10.00;69.82
37298;BME280;30517;51.932;4.278;2023-01-15T03:15:45;99843.50;;;10.26;69.97
37298;BME280;30517;51.932;4.278;2023-01-15T03:18:54;99837.34;;;10.26;69.76
37298;BME280;30517;51.932;4.278;2023-01-15T03:21:46;99803.44;;;10.04;70.00
37298;BME280;30517;51.932;4.278;2023-01-15T03:24:32;99830.41;;;10.22;69.53
37298;BME280;30517;51.932;4.278;2023-01-15T03:27:18;99829.56;;;10.19;69.77
37298;BME280;30517;51.932;4.278;2023-01-15T03:32:46;99839.16;;;10.22;69.35
37298;BME280;30517;51.932;4.278;2023-01-15T03:35:45;99839.25;;;10.17;69.66
37298;BME280;30517;51.932;4.278;2023-01-15T03:38:31;99831.38;;;10.16;69.91
37298;BME280;30517;51.932;4.278;2023-01-15T03:44:31;99820.72;;;10.22;69.49
37298;BME280;30517;51.932;4.278;2023-01-15T03:50:41;99823.41;;;10.19;69.41
37298;BME280;30517;51.932;4.278;2023-01-15T03:53:36;99831.38;;;10.14;69.45
37298;BME280;30517;51.932;4.278;2023-01-15T03:56:39;99823.44;;;10.17;69.76
37298;BME280;30517;51.932;4.278;2023-01-15T03:59:33;99815.66;;;10.10;69.55
37298;BME280;30517;51.932;4.278;2023-01-15T04:02:15;99813.13;;;10.04;69.36
37298;BME280;30517;51.932;4.278;2023-01-15T04:04:59;99827.81;;;10.18;69.38
37298;BME280;30517;51.932;4.278;2023-01-15T04:07:40;99811.28;;;10.09;69.36
37298;BME280;30517;51.932;4.278;2023-01-15T04:10:21;99814.78;;;10.11;69.36
37298;BME280;30517;51.932;4.278;2023-01-15T04:13:02;99831.38;;;10.16;69.52
37298;BME280;30517;51.932;4.278;2023-01-15T04:15:43;99835.78;;;10.14;69.63
37298;BME280;30517;51.932;4.278;2023-01-15T04:18:24;99817.47;;;10.08;69.66
37298;BME280;30517;51.932;4.278;2023-01-15T04:21:05;99812.16;;;10.09;69.60
37298;BME280;30517;51.932;4.278;2023-01-15T04:23:46;99794.91;;;9.90;69.39
37298;BME280;30517;51.932;4.278;2023-01-15T04:26:27;99807.09;;;9.97;69.13
37298;BME280;30517;51.932;4.278;2023-01-15T04:29:07;99823.56;;;10.10;69.22
37298;BME280;30517;51.932;4.278;2023-01-15T04:31:48;99828.06;;;10.03;69.31
37298;BME280;30517;51.932;4.278;2023-01-15T04:34:31;99819.38;;;9.98;69.28
37298;BME280;30517;51.932;4.278;2023-01-15T04:37:16;99833.22;;;10.09;69.60
37298;BME280;30517;51.932;4.278;2023-01-15T04:39:57;99824.50;;;10.07;69.38
37298;BME280;30517;51.932;4.278;2023-01-15T04:42:38;99827.97;;;10.09;69.08
37298;BME280;30517;51.932;4.278;2023-01-15T04:45:37;99804.41;;;9.98;69.25
37298;BME280;30517;51.932;4.278;2023-01-15T04:48:18;99814.09;;;9.98;69.11
37298;BME280;30517;51.932;4.278;2023-01-15T04:51:03;99794.97;;;9.87;68.85
37298;BME280;30517;51.932;4.278;2023-01-15T04:53:44;99825.41;;;10.05;68.65
37298;BME280;30517;51.932;4.278;2023-01-15T04:56:25;99809.75;;;9.95;68.78
37298;BME280;30517;51.932;4.278;2023-01-15T04:59:06;99811.50;;;9.96;68.74
37298;BME280;30517;51.932;4.278;2023-01-15T05:01:48;99801.13;;;9.86;68.69
37298;BME280;30517;51.932;4.278;2023-01-15T05:04:30;99805.56;;;9.82;68.77
37298;BME280;30517;51.932;4.278;2023-01-15T05:07:11;99815.06;;;9.92;68.75
37298;BME280;30517;51.932;4.278;2023-01-15T05:09:51;99825.53;;;9.97;68.75
37298;BME280;30517;51.932;4.278;2023-01-15T05:12:33;99801.97;;;9.88;68.75
37298;BME280;30517;51.932;4.278;2023-01-15T05:15:17;99831.66;;;9.99;68.91
37298;BME280;30517;51.932;4.278;2023-01-15T05:17:58;99798.50;;;9.86;68.84
37298;BME280;30517;51.932;4.278;2023-01-15T05:20:38;99815.00;;;9.97;68.66
37298;BME280;30517;51.932;4.278;2023-01-15T05:23:19;99822.00;;;9.98;68.91
37298;BME280;30517;51.932;4.278;2023-01-15T05:26:02;99807.16;;;9.94;68.81
37298;BME280;30517;51.932;4.278;2023-01-15T05:28:44;99822.84;;;9.98;68.87
37298;BME280;30517;51.932;4.278;2023-01-15T05:31:28;99800.06;;;9.96;68.39
37298;BME280;30517;51.932;4.278;2023-01-15T05:34:09;99798.44;;;9.89;68.25
37298;BME280;30517;51.932;4.278;2023-01-15T05:36:51;99809.75;;;9.95;68.31
37298;BME280;30517;51.932;4.278;2023-01-15T05:39:32;99818.66;;;9.88;68.52
37298;BME280;30517;51.932;4.278;2023-01-15T05:42:13;99809.84;;;9.89;68.43
37298;BME280;30517;51.932;4.278;2023-01-15T05:44:54;99817.69;;;9.92;68.66
37298;BME280;30517;51.932;4.278;2023-01-15T05:47:35;99825.72;;;9.86;68.50
37298;BME280;30517;51.932;4.278;2023-01-15T05:50:15;99824.88;;;9.83;68.81
37298;BME280;30517;51.932;4.278;2023-01-15T05:52:56;99812.50;;;9.88;68.75
37298;BME280;30517;51.932;4.278;2023-01-15T05:55:37;99811.84;;;9.75;68.76
37298;BME280;30517;51.932;4.278;2023-01-15T05:58:18;99837.06;;;9.90;68.68
37298;BME280;30517;51.932;4.278;2023-01-15T06:00:59;99815.22;;;9.83;68.51
37298;BME280;30517;51.932;4.278;2023-01-15T06:03:39;99832.69;;;9.89;68.74
37298;BME280;30517;51.932;4.278;2023-01-15T06:06:24;99827.44;;;9.89;68.39
37298;BME280;30517;51.932;4.278;2023-01-15T06:09:05;99842.38;;;9.88;68.44
37298;BME280;30517;51.932;4.278;2023-01-15T06:11:46;99806.66;;;9.69;68.13
37298;BME280;30517;51.932;4.278;2023-01-15T06:14:27;99824.84;;;9.86;68.37
37298;BME280;30517;51.932;4.278;2023-01-15T06:17:07;99823.31;;;9.71;68.55
37298;BME280;30517;51.932;4.278;2023-01-15T06:19:48;99844.16;;;9.85;68.57
37298;BME280;30517;51.932;4.278;2023-01-15T06:22:29;99838.94;;;9.83;68.60
37298;BME280;30517;51.932;4.278;2023-01-15T06:25:10;99818.78;;;9.81;68.48
37298;BME280;30517;51.932;4.278;2023-01-15T06:27:50;99840.72;;;9.80;68.70
37298;BME280;30517;51.932;4.278;2023-01-15T06:30:32;99829.47;;;9.68;68.49
37298;BME280;30517;51.932;4.278;2023-01-15T06:33:12;99829.47;;;9.70;68.19
37298;BME280;30517;51.932;4.278;2023-01-15T06:35:53;99841.59;;;9.80;68.11
37298;BME280;30517;51.932;4.278;2023-01-15T06:38:34;99842.53;;;9.74;68.01
37298;BME280;30517;51.932;4.278;2023-01-15T06:41:20;99831.06;;;9.80;68.38
37298;BME280;30517;51.932;4.278;2023-01-15T06:44:20;99828.50;;;9.75;68.39
37298;BME280;30517;51.932;4.278;2023-01-15T06:47:20;99828.50;;;9.75;68.42
37298;BME280;30517;51.932;4.278;2023-01-15T06:50:01;99815.59;;;9.59;68.56
37298;BME280;30517;51.932;4.278;2023-01-15T06:52:42;99828.50;;;9.74;68.85
37298;BME280;30517;51.932;4.278;2023-01-15T06:55:23;99831.25;;;9.69;68.51
37298;BME280;30517;51.932;4.278;2023-01-15T06:58:04;99819.81;;;9.70;68.34
37298;BME280;30517;51.932;4.278;2023-01-15T07:00:45;99825.03;;;9.73;68.51
37298;BME280;30517;51.932;4.278;2023-01-15T07:03:32;99818.94;;;9.70;68.48
37298;BME280;30517;51.932;4.278;2023-01-15T07:06:13;99781.47;;;9.51;68.75
37298;BME280;30517;51.932;4.278;2023-01-15T07:08:54;99798.97;;;9.55;68.34
37298;BME280;30517;51.932;4.278;2023-01-15T07:11:35;99807.69;;;9.59;68.60
37298;BME280;30517;51.932;4.278;2023-01-15T07:14:28;99812.88;;;9.63;68.54
37298;BME280;30517;51.932;4.278;2023-01-15T07:17:10;99788.53;;;9.47;68.63
37298;BME280;30517;51.932;4.278;2023-01-15T07:19:51;99831.25;;;9.68;68.34
37298;BME280;30517;51.932;4.278;2023-01-15T07:22:31;99818.09;;;9.66;68.45
37298;BME280;30517;51.932;4.278;2023-01-15T07:25:12;99796.31;;;9.55;68.40
37298;BME280;30517;51.932;4.278;2023-01-15T07:27:53;99818.09;;;9.66;68.67
37298;BME280;30517;51.932;4.278;2023-01-15T07:30:35;99824.38;;;9.58;68.99
37298;BME280;30517;51.932;4.278;2023-01-15T07:33:16;99805.06;;;9.59;68.65
37298;BME280;30517;51.932;4.278;2023-01-15T07:35:57;99812.81;;;9.66;68.86
37298;BME280;30517;51.932;4.278;2023-01-15T07:38:37;99790.19;;;9.56;68.22
37298;BME280;30517;51.932;4.278;2023-01-15T07:41:18;99812.81;;;9.66;68.93
37298;BME280;30517;51.932;4.278;2023-01-15T07:44:18;99803.34;;;9.56;68.56
37298;BME280;30517;51.932;4.278;2023-01-15T07:47:20;99797.19;;;9.57;68.72
37298;BME280;30517;51.932;4.278;2023-01-15T07:50:22;99798.84;;;9.64;68.43
37298;BME280;30517;51.932;4.278;2023-01-15T07:53:03;99798.09;;;9.53;68.54
37298;BME280;30517;51.932;4.278;2023-01-15T07:55:44;99817.28;;;9.61;68.98
37298;BME280;30517;51.932;4.278;2023-01-15T07:58:25;99812.94;;;9.60;68.88
37298;BME280;30517;51.932;4.278;2023-01-15T08:01:05;99818.16;;;9.63;68.53
37298;BME280;30517;51.932;4.278;2023-01-15T08:03:46;99792.06;;;9.48;68.46
37298;BME280;30517;51.932;4.278;2023-01-15T08:06:27;99825.19;;;9.63;68.84
37298;BME280;30517;51.932;4.278;2023-01-15T08:09:08;99818.19;;;9.60;68.81
37298;BME280;30517;51.932;4.278;2023-01-15T08:11:49;99814.81;;;9.52;68.88
37298;BME280;30517;51.932;4.278;2023-01-15T08:14:48;99817.31;;;9.60;68.72
37298;BME280;30517;51.932;4.278;2023-01-15T08:17:50;99838.41;;;9.58;68.46
37298;BME280;30517;51.932;4.278;2023-01-15T08:20:30;99810.50;;;9.48;68.90
37298;BME280;30517;51.932;4.278;2023-01-15T08:23:13;99823.56;;;9.54;68.93
37298;BME280;30517;51.932;4.278;2023-01-15T08:25:58;99826.28;;;9.48;68.85
37298;BME280;30517;51.932;4.278;2023-01-15T08:28:39;99793.94;;;9.40;68.93
37298;BME280;30517;51.932;4.278;2023-01-15T08:31:20;99834.09;;;9.54;68.58
37298;BME280;30517;51.932;4.278;2023-01-15T08:34:01;99836.72;;;9.52;68.30
37298;BME280;30517;51.932;4.278;2023-01-15T08:36:42;99824.41;;;9.55;68.73
37298;BME280;30517;51.932;4.278;2023-01-15T08:39:23;99831.56;;;9.48;68.95
37298;BME280;30517;51.932;4.278;2023-01-15T08:42:03;99808.00;;;9.37;68.89
37298;BME280;30517;51.932;4.278;2023-01-15T08:44:47;99810.56;;;9.42;68.94
37298;BME280;30517;51.932;4.278;2023-01-15T08:47:29;99829.72;;;9.51;69.13
37298;BME280;30517;51.932;4.278;2023-01-15T08:50:11;99821.88;;;9.47;68.67
37298;BME280;30517;51.932;4.278;2023-01-15T08:52:52;99824.47;;;9.51;68.70
37298;BME280;30517;51.932;4.278;2023-01-15T08:55:33;99827.09;;;9.50;68.91
37298;BME280;30517;51.932;4.278;2023-01-15T08:58:14;99759.28;;;9.07;69.07
37298;BME280;30517;51.932;4.278;2023-01-15T09:00:56;99799.25;;;9.34;69.14
37298;BME280;30517;51.932;4.278;2023-01-15T09:03:42;99818.34;;;9.49;68.91
37298;BME280;30517;51.932;4.278;2023-01-15T09:06:24;99805.22;;;9.46;68.70
37298;BME280;30517;51.932;4.278;2023-01-15T09:09:04;99815.72;;;9.49;68.84
37298;BME280;30517;51.932;4.278;2023-01-15T09:11:45;99815.72;;;9.49;68.62
37298;BME280;30517;51.932;4.278;2023-01-15T09:14:26;99822.75;;;9.49;69.02
37298;BME280;30517;51.932;4.278;2023-01-15T09:17:07;99815.72;;;9.49;68.97
37298;BME280;30517;51.932;4.278;2023-01-15T09:19:48;99816.66;;;9.44;69.06
37298;BME280;30517;51.932;4.278;2023-01-15T09:22:28;99833.28;;;9.49;69.16
37298;BME280;30517;51.932;4.278;2023-01-15T09:25:09;99825.38;;;9.47;68.71
37298;BME280;30517;51.932;4.278;2023-01-15T09:27:54;99830.66;;;9.49;68.82
37298;BME280;30517;51.932;4.278;2023-01-15T09:30:35;99809.72;;;9.40;68.90
37298;BME280;30517;51.932;4.278;2023-01-15T09:33:16;99827.09;;;9.51;68.78
37298;BME280;30517;51.932;4.278;2023-01-15T09:35:57;99833.28;;;9.49;68.94
37298;BME280;30517;51.932;4.278;2023-01-15T09:38:38;99817.53;;;9.46;68.48
37298;BME280;30517;51.932;4.278;2023-01-15T09:41:19;99835.97;;;9.46;68.76
37298;BME280;30517;51.932;4.278;2023-01-15T09:44:26;99838.59;;;9.46;68.89
37298;BME280;30517;51.932;4.278;2023-01-15T09:47:29;99836.91;;;9.40;69.11
37298;BME280;30517;51.932;4.278;2023-01-15T09:50:32;99837.72;;;9.44;69.04
37298;BME280;30517;51.932;4.278;2023-01-15T09:56:22;99828.16;;;9.40;69.20
37298;BME280;30517;51.932;4.278;2023-01-15T09:59:18;99828.97;;;9.42;68.72
37298;BME280;30517;51.932;4.278;2023-01-15T10:02:04;99834.38;;;9.33;69.07
37298;BME280;30517;51.932;4.278;2023-01-15T10:05:03;99808.16;;;9.23;68.55
37298;BME280;30517;51.932;4.278;2023-01-15T10:07:58;99860.56;;;9.43;68.94
37298;BME280;30517;51.932;4.278;2023-01-15T10:10:44;99855.44;;;9.33;69.17
37298;BME280;30517;51.932;4.278;2023-01-15T10:13:50;99862.38;;;9.40;69.40
37298;BME280;30517;51.932;4.278;2023-01-15T10:16:34;99856.16;;;9.42;69.15
37298;BME280;30517;51.932;4.278;2023-01-15T10:19:15;99854.44;;;9.43;69.20
37298;BME280;30517;51.932;4.278;2023-01-15T10:22:03;99848.50;;;9.25;69.09
37298;BME280;30517;51.932;4.278;2023-01-15T10:24:55;99862.31;;;9.43;68.81
37298;BME280;30517;51.932;4.278;2023-01-15T10:27:37;99852.72;;;9.40;69.30
37298;BME280;30517;51.932;4.278;2023-01-15T10:30:58;99850.22;;;9.29;69.28
37298;BME280;30517;51.932;4.278;2023-01-15T10:36:39;99831.84;;;9.26;68.79
37298;BME280;30517;51.932;4.278;2023-01-15T10:39:44;99867.63;;;9.38;69.12
37298;BME280;30517;51.932;4.278;2023-01-15T10:42:36;99879.84;;;9.42;69.33
37298;BME280;30517;51.932;4.278;2023-01-15T10:45:30;99849.31;;;9.30;68.85
37298;BME280;30517;51.932;4.278;2023-01-15T10:51:36;99886.84;;;9.45;69.06
37298;BME280;30517;51.932;4.278;2023-01-15T10:54:47;99854.47;;;9.37;68.21
37298;BME280;30517;51.932;4.278;2023-01-15T10:57:48;99837.88;;;9.35;68.29
37298;BME280;30517;51.932;4.278;2023-01-15T11:00:31;99854.38;;;9.46;68.23
37298;BME280;30517;51.932;4.278;2023-01-15T11:03:16;99883.28;;;9.47;68.32
37298;BME280;30517;51.932;4.278;2023-01-15T11:06:00;99862.19;;;9.52;68.60
37298;BME280;30517;51.932;4.278;2023-01-15T11:08:44;99863.91;;;9.55;68.08
37298;BME280;30517;51.932;4.278;2023-01-15T11:11:31;99835.25;;;9.35;67.95
37298;BME280;30517;51.932;4.278;2023-01-15T11:14:41;99869.16;;;9.56;68.45
37298;BME280;30517;51.932;4.278;2023-01-15T11:17:42;99829.88;;;9.39;68.29
37298;BME280;30517;51.932;4.278;2023-01-15T11:20:44;99870.91;;;9.56;68.29
37298;BME280;30517;51.932;4.278;2023-01-15T11:23:26;99867.41;;;9.55;68.56
37298;BME280;30517;51.932;4.278;2023-01-15T11:26:07;99822.91;;;9.38;68.19
37298;BME280;30517;51.932;4.278;2023-01-15T11:28:49;99864.69;;;9.61;68.30
37298;BME280;30517;51.932;4.278;2023-01-15T11:31:37;99861.28;;;9.53;68.38
37298;BME280;30517;51.932;4.278;2023-01-15T11:34:20;99858.78;;;9.44;69.00
37298;BME280;30517;51.932;4.278;2023-01-15T11:37:05;99878.78;;;9.57;68.90
37298;BME280;30517;51.932;4.278;2023-01-15T11:39:53;99875.31;;;9.55;68.74
37298;BME280;30517;51.932;4.278;2023-01-15T11:42:38;99872.63;;;9.58;68.71
37298;BME280;30517;51.932;4.278;2023-01-15T11:45:49;99884.06;;;9.59;68.69
37298;BME280;30517;51.932;4.278;2023-01-15T11:48:51;99855.19;;;9.49;68.12
37298;BME280;30517;51.932;4.278;2023-01-15T11:51:50;99836.06;;;9.37;67.99
37298;BME280;30517;51.932;4.278;2023-01-15T11:54:32;99845.47;;;9.53;67.95
37298;BME280;30517;51.932;4.278;2023-01-15T11:57:43;99874.38;;;9.59;68.24
37298;BME280;30517;51.932;4.278;2023-01-15T12:00:37;99795.00;;;9.25;68.29
37298;BME280;30517;51.932;4.278;2023-01-15T12:03:27;99883.97;;;9.65;68.36
37298;BME280;30517;51.932;4.278;2023-01-15T12:06:12;99882.19;;;9.65;68.50
37298;BME280;30517;51.932;4.278;2023-01-15T12:09:15;99886.63;;;9.62;68.26
37298;BME280;30517;51.932;4.278;2023-01-15T12:15:18;99874.44;;;9.56;68.45
37298;BME280;30517;51.932;4.278;2023-01-15T12:18:28;99884.81;;;9.65;68.22
37298;BME280;30517;51.932;4.278;2023-01-15T12:21:38;99870.84;;;9.60;68.00
37298;BME280;30517;51.932;4.278;2023-01-15T12:24:43;99881.34;;;9.63;68.43
37298;BME280;30517;51.932;4.278;2023-01-15T12:27:38;99863.84;;;9.59;68.56
37298;BME280;30517;51.932;4.278;2023-01-15T12:36:51;99876.94;;;9.65;68.08
37298;BME280;30517;51.932;4.278;2023-01-15T12:42:22;99850.53;;;9.70;67.90
37298;BME280;30517;51.932;4.278;2023-01-15T12:45:30;99851.22;;;9.19;64.77
37298;BME280;30517;51.932;4.278;2023-01-15T12:48:20;99857.00;;;9.46;64.88
37298;BME280;30517;51.932;4.278;2023-01-15T12:51:03;99870.06;;;9.53;65.52
37298;BME280;30517;51.932;4.278;2023-01-15T12:53:52;99858.63;;;9.56;66.32
37298;BME280;30517;51.932;4.278;2023-01-15T12:56:45;99868.25;;;9.59;66.59
37298;BME280;30517;51.932;4.278;2023-01-15T12:59:34;99862.03;;;9.61;66.53
37298;BME280;30517;51.932;4.278;2023-01-15T13:05:16;99869.03;;;9.65;67.02
37298;BME280;30517;51.932;4.278;2023-01-15T13:08:05;99877.78;;;9.67;67.30
37298;BME280;30517;51.932;4.278;2023-01-15T13:10:50;99840.28;;;9.50;67.40
37298;BME280;30517;51.932;4.278;2023-01-15T13:13:35;99891.81;;;9.69;67.37
37298;BME280;30517;51.932;4.278;2023-01-15T13:16:21;99872.53;;;9.67;67.18
37298;BME280;30517;51.932;4.278;2023-01-15T13:19:15;99881.28;;;9.68;67.38
37298;BME280;30517;51.932;4.278;2023-01-15T13:21:59;99869.84;;;9.70;67.51
37298;BME280;30517;51.932;4.278;2023-01-15T13:33:32;99868.06;;;9.71;67.25
37298;BME280;30517;51.932;4.278;2023-01-15T13:36:37;99876.00;;;9.69;67.77
37298;BME280;30517;51.932;4.278;2023-01-15T13:39:22;99856.78;;;9.61;67.48
37298;BME280;30517;51.932;4.278;2023-01-15T13:42:05;99895.19;;;9.78;67.23
37298;BME280;30517;51.932;4.278;2023-01-15T13:45:39;99887.31;;;9.74;67.83
37298;BME280;30517;51.932;4.278;2023-01-15T13:48:29;99890.81;;;9.78;67.58
37298;BME280;30517;51.932;4.278;2023-01-15T13:51:25;99900.47;;;9.78;67.64
37298;BME280;30517;51.932;4.278;2023-01-15T13:54:12;99885.59;;;9.73;67.74
37298;BME280;30517;51.932;4.278;2023-01-15T13:57:09;99864.66;;;9.64;67.56
37298;BME280;30517;51.932;4.278;2023-01-15T13:59:50;99909.16;;;9.83;67.85
37298;BME280;30517;51.932;4.278;2023-01-15T14:02:37;99928.50;;;9.82;67.59
37298;BME280;30517;51.932;4.278;2023-01-15T14:05:34;99886.50;;;9.72;67.91
37298;BME280;30517;51.932;4.278;2023-01-15T14:08:25;99913.50;;;9.85;67.58
37298;BME280;30517;51.932;4.278;2023-01-15T14:14:42;99924.88;;;9.89;67.45
37298;BME280;30517;51.932;4.278;2023-01-15T14:20:54;99948.63;;;9.86;67.84
37298;BME280;30517;51.932;4.278;2023-01-15T14:23:48;99920.53;;;9.86;67.74
37298;BME280;30517;51.932;4.278;2023-01-15T14:35:40;99916.06;;;9.90;67.27
37298;BME280;30517;51.932;4.278;2023-01-15T14:38:25;99924.84;;;9.92;67.20
37298;BME280;30517;51.932;4.278;2023-01-15T14:41:07;99894.25;;;9.80;67.47
37298;BME280;30517;51.932;4.278;2023-01-15T14:43:48;99915.13;;;9.95;67.18
37298;BME280;30517;51.932;4.278;2023-01-15T14:46:31;99919.50;;;9.96;67.55
37298;BME280;30517;51.932;4.278;2023-01-15T14:49:30;99904.84;;;9.79;67.48
37298;BME280;30517;51.932;4.278;2023-01-15T14:52:11;99933.56;;;9.97;67.80
37298;BME280;30517;51.932;4.278;2023-01-15T14:54:53;99938.81;;;9.97;67.49
37298;BME280;30517;51.932;4.278;2023-01-15T14:57:35;99930.88;;;9.98;67.32
37298;BME280;30517;51.932;4.278;2023-01-15T15:00:19;99931.78;;;9.99;67.58
37298;BME280;30517;51.932;4.278;2023-01-15T15:03:10;99943.22;;;9.95;67.37
37298;BME280;30517;51.932;4.278;2023-01-15T15:05:52;99941.41;;;10.00;67.65
37298;BME280;30517;51.932;4.278;2023-01-15T15:08:34;99910.03;;;9.83;67.29
37298;BME280;30517;51.932;4.278;2023-01-15T15:11:22;99929.97;;;10.03;67.49
37298;BME280;30517;51.932;4.278;2023-01-15T15:14:24;99922.16;;;9.96;67.35
37298;BME280;30517;51.932;4.278;2023-01-15T15:17:28;99930.88;;;10.00;67.58
37298;BME280;30517;51.932;4.278;2023-01-15T15:20:34;99944.03;;;10.00;67.57
37298;BME280;30517;51.932;4.278;2023-01-15T15:23:46;99943.13;;;10.01;67.52
37298;BME280;30517;51.932;4.278;2023-01-15T15:26:33;99928.28;;;9.97;67.65
37298;BME280;30517;51.932;4.278;2023-01-15T15:29:17;99923.13;;;9.88;67.71
37298;BME280;30517;51.932;4.278;2023-01-15T15:31:58;99933.59;;;9.94;67.68
37298;BME280;30517;51.932;4.278;2023-01-15T15:34:44;99924.03;;;9.87;67.96
37298;BME280;30517;51.932;4.278;2023-01-15T15:37:30;99949.25;;;10.03;67.91
37298;BME280;30517;51.932;4.278;2023-01-15T15:40:19;99870.94;;;9.54;67.66
37298;BME280;30517;51.932;4.278;2023-01-15T15:43:12;99950.19;;;10.01;67.69
37298;BME280;30517;51.932;4.278;2023-01-15T15:46:28;99952.81;;;10.01;67.78
37298;BME280;30517;51.932;4.278;2023-01-15T15:49:37;99965.13;;;10.00;67.95
37298;BME280;30517;51.932;4.278;2023-01-15T15:52:21;99966.88;;;10.00;67.67
37298;BME280;30517;51.932;4.278;2023-01-15T15:55:03;99942.41;;;9.90;67.76
37298;BME280;30517;51.932;4.278;2023-01-15T15:57:52;99945.81;;;9.98;68.11
37298;BME280;30517;51.932;4.278;2023-01-15T16:00:39;99971.25;;;10.01;67.88
37298;BME280;30517;51.932;4.278;2023-01-15T16:03:27;99966.03;;;9.99;68.00